createdAt,value
2018-06-13T00:01:38.267Z,4.80
2018-06-13T00:04:06.605Z,4.58
2018-06-13T00:06:34.818Z,4.53
2018-06-13T00:09:05.790Z,4.60
2018-06-13T00:11:33.926Z,4.50
2018-06-13T00:14:03.095Z,4.25
2018-06-13T00:16:31.439Z,4.60
2018-06-13T00:18:59.729Z,4.90
2018-06-13T00:21:27.959Z,5.17
2018-06-13T00:23:56.722Z,4.70
2018-06-13T00:26:25.361Z,4.87
2018-06-13T00:28:53.554Z,5.20
2018-06-13T00:31:21.842Z,4.85
2018-06-13T00:33:50.034Z,5.63
2018-06-13T00:36:18.111Z,5.60
2018-06-13T00:38:46.737Z,5.40
2018-06-13T00:41:15.103Z,4.73
2018-06-13T00:43:43.278Z,5.13
2018-06-13T00:46:11.533Z,5.37
2018-06-13T00:48:39.838Z,4.80
2018-06-13T00:51:09.239Z,5.37
2018-06-13T00:53:37.453Z,6.00
2018-06-13T00:56:22.558Z,5.50
2018-06-13T00:58:50.756Z,5.47
2018-06-13T01:01:19.050Z,6.10
2018-06-13T01:03:47.288Z,5.33
2018-06-13T01:06:15.585Z,5.40
2018-06-13T01:08:43.900Z,5.45
2018-06-13T01:11:12.120Z,6.60
2018-06-13T01:13:40.207Z,6.57
2018-06-13T01:16:08.726Z,6.97
2018-06-13T01:18:36.856Z,6.50
2018-06-13T01:21:05.280Z,6.95
2018-06-13T01:23:33.418Z,7.30
2018-06-13T01:26:01.617Z,7.30
2018-06-13T01:28:29.742Z,6.50
2018-06-13T01:30:57.850Z,5.92
2018-06-13T01:33:26.410Z,6.78
2018-06-13T01:35:54.589Z,6.70
2018-06-13T01:38:22.753Z,5.97
2018-06-13T01:40:50.852Z,7.30
2018-06-13T01:43:18.973Z,6.15
2018-06-13T01:45:47.130Z,7.00
2018-06-13T01:48:15.345Z,6.80
2018-06-13T01:51:00.179Z,7.00
2018-06-13T01:53:29.613Z,7.08
2018-06-13T01:55:57.770Z,7.10
2018-06-13T01:58:25.843Z,7.55
2018-06-13T02:00:53.939Z,7.15
2018-06-13T02:03:22.138Z,7.25
2018-06-13T02:05:50.279Z,8.03
2018-06-13T02:08:18.577Z,8.10
2018-06-13T02:10:46.702Z,8.30
2018-06-13T02:13:15.051Z,9.43
2018-06-13T02:15:43.333Z,8.60
2018-06-13T02:18:11.726Z,8.10
2018-06-13T02:20:39.901Z,8.50
2018-06-13T02:23:08.036Z,8.58
2018-06-13T02:25:36.239Z,9.00
2018-06-13T02:28:04.635Z,8.30
2018-06-13T02:30:32.830Z,9.03
2018-06-13T02:33:00.988Z,8.53
2018-06-13T02:35:29.177Z,9.00
2018-06-13T02:37:57.383Z,8.73
2018-06-13T02:40:25.586Z,8.75
2018-06-13T02:42:53.666Z,9.60
2018-06-13T02:45:21.881Z,10.23
2018-06-13T02:47:50.009Z,10.23
2018-06-13T02:50:18.153Z,9.70
2018-06-13T02:52:46.371Z,9.98
2018-06-13T02:55:14.726Z,9.03
2018-06-13T02:57:42.871Z,9.80
2018-06-13T03:00:11.010Z,8.30
2018-06-13T03:02:39.200Z,8.15
2018-06-13T03:05:07.314Z,9.70
2018-06-13T03:07:35.464Z,8.83
2018-06-13T03:10:04.086Z,9.13
2018-06-13T03:12:32.211Z,8.65
2018-06-13T03:15:00.298Z,9.53
2018-06-13T03:17:28.601Z,8.93
2018-06-13T03:19:56.731Z,9.35
2018-06-13T03:22:25.065Z,9.00
2018-06-13T03:24:53.209Z,9.50
2018-06-13T03:27:21.329Z,9.38
2018-06-13T03:29:49.510Z,7.80
2018-06-13T03:32:17.937Z,9.30
2018-06-13T03:34:46.145Z,9.70
2018-06-13T03:37:14.394Z,9.53
2018-06-13T03:39:42.917Z,8.13
2018-06-13T03:42:11.778Z,8.88
2018-06-13T03:44:40.202Z,8.10
2018-06-13T03:47:08.555Z,8.10
2018-06-13T03:49:37.897Z,8.18
2018-06-13T03:52:06.705Z,8.13
2018-06-13T03:54:35.152Z,7.70
2018-06-13T03:57:05.278Z,8.10
2018-06-13T03:59:33.929Z,7.95
2018-06-13T04:02:03.609Z,7.30
2018-06-13T04:04:31.969Z,8.60
2018-06-13T04:07:01.153Z,6.95
2018-06-13T04:09:29.894Z,7.33
2018-06-13T04:11:58.756Z,7.92
2018-06-13T04:14:27.185Z,8.10
2018-06-13T04:16:55.488Z,7.78
2018-06-13T04:19:24.854Z,7.65
2018-06-13T04:21:54.275Z,8.18
2018-06-13T04:24:23.818Z,8.50
2018-06-13T04:26:54.478Z,8.20
2018-06-13T04:29:23.054Z,8.40
2018-06-13T04:31:51.697Z,8.60
2018-06-13T04:34:19.809Z,8.45
2018-06-13T04:36:51.988Z,8.40
2018-06-13T04:39:21.644Z,9.68
2018-06-13T04:41:49.800Z,10.43
2018-06-13T04:44:17.905Z,9.90
2018-06-13T04:46:46.090Z,9.60
2018-06-13T04:49:14.693Z,10.53
2018-06-13T04:51:42.833Z,10.23
2018-06-13T04:54:11.149Z,10.10
2018-06-13T04:56:39.472Z,9.55
2018-06-13T04:59:08.994Z,8.35
2018-06-13T05:01:37.267Z,8.88
2018-06-13T05:04:05.623Z,7.42
2018-06-13T05:06:35.308Z,8.70
2018-06-13T05:09:05.828Z,8.03
2018-06-13T05:11:34.208Z,8.60
2018-06-13T05:14:05.638Z,8.55
2018-06-13T05:16:33.966Z,8.03
2018-06-13T05:19:02.382Z,7.90
2018-06-13T05:21:30.655Z,6.12
2018-06-13T05:23:58.766Z,8.28
2018-06-13T05:26:27.802Z,6.35
2018-06-13T05:28:56.051Z,5.90
2018-06-13T05:31:24.456Z,5.97
2018-06-13T05:33:52.673Z,6.15
2018-06-13T05:36:20.936Z,5.85
2018-06-13T05:38:49.123Z,5.90
2018-06-13T05:41:17.264Z,5.67
2018-06-13T05:43:45.459Z,5.78
2018-06-13T05:46:13.746Z,6.72
2018-06-13T05:48:41.964Z,6.72
2018-06-13T05:51:10.189Z,4.78
2018-06-13T05:53:38.510Z,4.65
2018-06-13T05:56:06.785Z,5.97
2018-06-13T05:58:35.076Z,5.40
2018-06-13T06:01:03.338Z,4.72
2018-06-13T06:03:32.575Z,4.37
2018-06-13T06:06:00.757Z,5.08
2018-06-13T06:08:28.890Z,4.23
2018-06-13T06:10:56.913Z,3.80
2018-06-13T06:13:25.058Z,2.93
2018-06-13T06:15:53.362Z,2.30
2018-06-13T06:18:21.639Z,2.33
2018-06-13T06:20:49.874Z,2.20
2018-06-13T06:23:18.041Z,2.77
2018-06-13T06:25:46.143Z,3.03
2018-06-13T06:28:14.429Z,2.23
2018-06-13T06:30:42.742Z,2.10
2018-06-13T06:33:11.782Z,2.60
2018-06-13T06:35:40.131Z,2.30
2018-06-13T06:38:08.286Z,2.30
2018-06-13T06:40:36.909Z,2.17
2018-06-13T06:43:05.073Z,2.10
2018-06-13T06:45:33.402Z,2.40
2018-06-13T06:48:01.710Z,2.43
2018-06-13T06:50:29.921Z,3.20
2018-06-13T06:52:58.121Z,2.90
2018-06-13T06:55:26.277Z,3.05
2018-06-13T06:57:54.552Z,3.10
2018-06-13T07:00:22.750Z,2.60
2018-06-13T07:02:50.912Z,3.55
2018-06-13T07:05:19.336Z,4.92
2018-06-13T07:07:47.511Z,18.42
2018-06-13T07:10:15.746Z,9.20
2018-06-13T07:12:43.913Z,7.75
2018-06-13T07:15:12.107Z,9.60
2018-06-13T07:17:40.432Z,9.90
2018-06-13T07:20:08.643Z,9.78
2018-06-13T07:22:36.780Z,9.15
2018-06-13T07:25:04.975Z,9.53
2018-06-13T07:27:33.122Z,9.60
2018-06-13T07:30:01.318Z,8.03
2018-06-13T07:32:29.597Z,8.90
2018-06-13T07:34:57.652Z,7.90
2018-06-13T07:37:25.809Z,8.03
2018-06-13T07:39:53.981Z,7.27
2018-06-13T07:42:22.147Z,7.87
2018-06-13T07:44:50.262Z,7.10
2018-06-13T07:47:18.477Z,6.90
2018-06-13T07:49:46.637Z,8.93
2018-06-13T07:52:14.827Z,8.68
2018-06-13T07:54:43.115Z,7.90
2018-06-13T07:57:11.345Z,7.62
2018-06-13T07:59:39.941Z,8.30
2018-06-13T08:02:08.301Z,7.33
2018-06-13T08:04:36.406Z,10.50
2018-06-13T08:07:04.625Z,7.87
2018-06-13T08:09:32.781Z,6.70
2018-06-13T08:12:01.049Z,6.78
2018-06-13T08:14:29.256Z,7.10
2018-06-13T08:16:57.443Z,5.67
2018-06-13T08:19:32.301Z,7.67
2018-06-13T08:22:00.421Z,6.80
2018-06-13T08:24:34.324Z,7.25
2018-06-13T08:27:02.584Z,6.80
2018-06-13T08:29:30.799Z,6.30
2018-06-13T08:31:59.043Z,6.60
2018-06-13T08:34:27.172Z,6.50
2018-06-13T08:36:55.372Z,6.53
2018-06-13T08:39:23.562Z,5.93
2018-06-13T08:41:51.788Z,6.00
2018-06-13T08:44:19.917Z,6.23
2018-06-13T08:46:48.140Z,6.90
2018-06-13T08:49:16.321Z,6.00
2018-06-13T08:51:48.535Z,5.47
2018-06-13T08:54:16.752Z,5.70
2018-06-13T08:56:45.329Z,6.13
2018-06-13T08:59:13.454Z,6.10
2018-06-13T09:01:41.738Z,4.10
2018-06-13T09:04:09.953Z,4.60
2018-06-13T09:06:38.187Z,4.83
2018-06-13T09:09:08.002Z,4.37
2018-06-13T09:11:36.691Z,4.73
2018-06-13T09:14:05.561Z,5.30
2018-06-13T09:16:33.753Z,4.67
2018-06-13T09:19:02.027Z,4.20
2018-06-13T09:21:30.099Z,4.07
2018-06-13T09:23:58.253Z,4.37
2018-06-13T09:26:27.685Z,3.92
2018-06-13T09:28:55.827Z,4.30
2018-06-13T09:31:25.075Z,4.15
2018-06-13T09:33:53.457Z,4.72
2018-06-13T09:36:22.667Z,4.20
2018-06-13T09:38:51.537Z,4.40
2018-06-13T09:41:19.745Z,4.22
2018-06-13T09:43:49.140Z,3.75
2018-06-13T09:46:17.361Z,4.95
2018-06-13T09:48:45.628Z,3.47
2018-06-13T09:51:13.891Z,4.42
2018-06-13T09:53:42.067Z,3.80
2018-06-13T09:56:10.285Z,3.22
2018-06-13T09:58:43.991Z,3.27
2018-06-13T10:01:17.873Z,3.22
2018-06-13T10:03:46.066Z,2.40
2018-06-13T10:06:14.239Z,2.90
2018-06-13T10:08:42.575Z,2.90
2018-06-13T10:11:10.680Z,3.40
2018-06-13T10:13:38.907Z,3.37
2018-06-13T10:16:07.084Z,3.70
2018-06-13T10:18:35.287Z,3.63
2018-06-13T10:21:03.461Z,3.10
2018-06-13T10:23:31.587Z,3.47
2018-06-13T10:25:59.733Z,3.50
2018-06-13T10:28:27.901Z,3.77
2018-06-13T10:30:56.269Z,3.23
2018-06-13T10:33:24.403Z,3.70
2018-06-13T10:35:53.398Z,2.93
2018-06-13T10:38:21.655Z,3.37
2018-06-13T10:40:49.934Z,2.60
2018-06-13T10:43:18.074Z,2.80
2018-06-13T10:45:46.397Z,2.30
2018-06-13T10:48:14.529Z,2.20
2018-06-13T10:50:42.597Z,2.57
2018-06-13T10:53:10.759Z,3.17
2018-06-13T10:55:38.972Z,3.83
2018-06-13T10:58:07.137Z,2.67
2018-06-13T11:00:35.370Z,2.90
2018-06-13T11:03:03.550Z,3.13
2018-06-13T11:05:31.794Z,2.93
2018-06-13T11:07:59.961Z,3.27
2018-06-13T11:10:28.145Z,3.23
2018-06-13T11:12:56.868Z,2.80
2018-06-13T11:15:25.025Z,3.03
2018-06-13T11:17:53.182Z,2.13
2018-06-13T11:20:21.941Z,1.80
2018-06-13T11:22:50.083Z,2.13
2018-06-13T11:25:18.138Z,1.70
2018-06-13T11:27:46.365Z,1.83
2018-06-13T11:30:14.490Z,1.77
2018-06-13T11:32:42.685Z,1.80
2018-06-13T11:35:10.962Z,1.70
2018-06-13T11:37:39.078Z,2.00
2018-06-13T11:40:07.235Z,1.90
2018-06-13T11:42:35.345Z,2.83
2018-06-13T11:45:03.971Z,2.47
2018-06-13T11:47:32.183Z,2.03
2018-06-13T11:50:01.316Z,2.13
2018-06-13T11:52:29.477Z,2.00
2018-06-13T11:54:57.816Z,2.53
2018-06-13T11:57:25.970Z,2.80
2018-06-13T11:59:54.260Z,2.50
2018-06-13T12:02:22.458Z,3.20
2018-06-13T12:04:50.656Z,3.27
2018-06-13T12:07:18.941Z,3.80
2018-06-13T12:09:47.410Z,3.30
2018-06-13T12:12:15.699Z,3.00
2018-06-13T12:14:44.062Z,3.00
2018-06-13T12:17:12.301Z,4.30
2018-06-13T12:19:40.567Z,4.70
2018-06-13T12:22:08.714Z,4.57
2018-06-13T12:24:36.927Z,3.33
2018-06-13T12:27:05.669Z,3.13
2018-06-13T12:29:33.846Z,4.03
2018-06-13T12:32:02.256Z,2.97
2018-06-13T12:34:30.549Z,3.67
2018-06-13T12:36:58.806Z,4.10
2018-06-13T12:39:27.288Z,3.87
2018-06-13T12:41:59.725Z,3.10
2018-06-13T12:44:27.859Z,3.07
2018-06-13T12:46:56.060Z,3.43
2018-06-13T12:49:24.265Z,3.77
2018-06-13T12:51:52.515Z,3.83
2018-06-13T12:54:20.686Z,3.50
2018-06-13T12:56:48.965Z,4.27
2018-06-13T12:59:17.243Z,2.90
2018-06-13T13:01:45.582Z,2.50
2018-06-13T13:04:13.903Z,3.77
2018-06-13T13:06:42.149Z,4.23
2018-06-13T13:09:12.412Z,3.57
2018-06-13T13:11:41.327Z,3.23
2018-06-13T13:14:09.526Z,3.57
2018-06-13T13:16:37.695Z,3.40
2018-06-13T13:19:06.146Z,3.20
2018-06-13T13:21:34.311Z,3.70
2018-06-13T13:24:02.661Z,3.60
2018-06-13T13:26:30.769Z,3.80
2018-06-13T13:28:59.038Z,3.80
2018-06-13T13:31:27.301Z,3.40
2018-06-13T13:33:55.651Z,3.80
2018-06-13T13:36:23.825Z,3.17
2018-06-13T13:38:52.039Z,3.63
2018-06-13T13:41:20.213Z,3.50
2018-06-13T13:43:48.461Z,3.60
2018-06-13T13:46:16.664Z,3.60
2018-06-13T13:48:44.923Z,3.10
2018-06-13T13:51:13.104Z,4.20
2018-06-13T13:53:41.593Z,2.90
2018-06-13T13:56:10.435Z,4.30
2018-06-13T13:58:38.657Z,3.80
2018-06-13T14:01:06.924Z,2.63
2018-06-13T14:03:35.117Z,3.13
2018-06-13T14:06:03.278Z,2.77
2018-06-13T14:08:31.556Z,3.90
2018-06-13T14:10:59.805Z,4.00
2018-06-13T14:13:28.014Z,3.10
2018-06-13T14:16:00.282Z,2.80
2018-06-13T14:18:28.434Z,3.10
2018-06-13T14:20:56.683Z,2.60
2018-06-13T14:23:24.778Z,2.73
2018-06-13T14:25:53.005Z,3.70
2018-06-13T14:28:21.133Z,3.80
2018-06-13T14:30:49.346Z,4.40
2018-06-13T14:33:17.576Z,3.70
2018-06-13T14:35:46.147Z,3.93
2018-06-13T14:38:15.454Z,3.50
2018-06-13T14:40:43.625Z,2.60
2018-06-13T14:43:12.018Z,2.80
2018-06-13T14:45:40.332Z,3.10
2018-06-13T14:48:08.598Z,2.70
2018-06-13T14:50:36.997Z,3.10
2018-06-13T14:53:05.175Z,3.40
2018-06-13T14:55:38.837Z,4.57
2018-06-13T14:58:07.054Z,3.23
2018-06-13T15:00:35.274Z,2.50
2018-06-13T15:03:03.633Z,3.30
2018-06-13T15:05:31.861Z,3.27
2018-06-13T15:08:00.322Z,2.73
2018-06-13T15:10:28.769Z,3.53
2018-06-13T15:12:57.046Z,3.60
2018-06-13T15:15:25.350Z,3.23
2018-06-13T15:17:53.670Z,2.87
2018-06-13T15:20:22.027Z,3.43
2018-06-13T15:22:50.289Z,3.70
2018-06-13T15:25:19.150Z,3.30
2018-06-13T15:27:47.381Z,2.93
2018-06-13T15:30:15.689Z,2.03
2018-06-13T15:32:43.963Z,3.00
2018-06-13T15:35:12.759Z,3.50
2018-06-13T15:37:41.449Z,3.60
2018-06-13T15:40:09.811Z,3.10
2018-06-13T15:42:38.270Z,3.80
2018-06-13T15:45:06.676Z,2.60
2018-06-13T15:47:34.928Z,2.70
2018-06-13T15:50:03.956Z,2.30
2018-06-13T15:52:32.234Z,2.93
2018-06-13T15:55:00.594Z,2.90
2018-06-13T15:57:28.766Z,2.00
2018-06-13T15:59:56.999Z,2.00
2018-06-13T16:02:25.590Z,2.10
2018-06-13T16:04:54.003Z,2.50
2018-06-13T16:07:22.767Z,2.13
2018-06-13T16:09:51.070Z,2.07
2018-06-13T16:12:19.396Z,2.20
2018-06-13T16:14:47.578Z,2.17
2018-06-13T16:17:16.059Z,1.83
2018-06-13T16:19:44.278Z,2.20
2018-06-13T16:22:13.153Z,2.50
2018-06-13T16:24:41.478Z,2.07
2018-06-13T16:27:09.726Z,2.80
2018-06-13T16:29:37.971Z,2.23
2018-06-13T16:32:06.145Z,2.97
2018-06-13T16:34:34.627Z,2.80
2018-06-13T16:37:02.975Z,2.47
2018-06-13T16:39:31.325Z,2.67
2018-06-13T16:41:59.666Z,2.37
2018-06-13T16:44:27.981Z,2.83
2018-06-13T16:46:56.232Z,3.03
2018-06-13T16:49:24.675Z,2.90
2018-06-13T16:51:54.880Z,2.70
2018-06-13T16:55:41.945Z,2.90
2018-06-13T16:58:10.178Z,2.60
2018-06-13T17:00:38.365Z,3.10
2018-06-13T17:03:06.622Z,3.13
2018-06-13T17:05:35.530Z,2.83
2018-06-13T17:08:08.173Z,2.90
2018-06-13T17:10:36.531Z,3.80
2018-06-13T17:13:04.783Z,3.33
2018-06-13T17:15:33.171Z,3.60
2018-06-13T17:18:01.682Z,4.03
2018-06-13T17:20:30.235Z,3.30
2018-06-13T17:22:58.654Z,3.90
2018-06-13T17:25:27.035Z,3.10
2018-06-13T17:27:55.339Z,3.50
2018-06-13T17:30:23.715Z,3.33
2018-06-13T17:32:52.006Z,3.03
2018-06-13T17:35:20.968Z,3.90
2018-06-13T17:37:49.634Z,3.60
2018-06-13T17:40:17.942Z,3.43
2018-06-13T17:42:46.571Z,4.33
2018-06-13T17:45:15.369Z,4.30
2018-06-13T17:47:44.284Z,4.30
2018-06-13T17:50:14.545Z,4.03
2018-06-13T17:52:43.328Z,4.47
2018-06-13T17:55:11.684Z,3.50
2018-06-13T17:57:40.149Z,3.80
2018-06-13T18:00:08.577Z,4.10
2018-06-13T18:02:37.430Z,4.00
2018-06-13T18:05:06.452Z,3.87
2018-06-13T18:07:35.143Z,4.20
2018-06-13T18:10:04.117Z,4.53
2018-06-13T18:12:33.074Z,3.50
2018-06-13T18:15:01.739Z,4.10
2018-06-13T18:17:30.312Z,4.40
2018-06-13T18:19:59.428Z,4.20
2018-06-13T18:22:27.867Z,3.65
2018-06-13T18:24:56.247Z,3.77
2018-06-13T18:27:24.741Z,2.93
2018-06-13T18:29:53.467Z,3.70
2018-06-13T18:32:21.799Z,4.20
2018-06-13T18:34:50.348Z,4.30
2018-06-13T18:37:18.610Z,3.70
2018-06-13T18:39:47.040Z,4.07
2018-06-13T18:42:15.461Z,3.55
2018-06-13T18:44:43.712Z,3.20
2018-06-13T18:47:12.011Z,3.80
2018-06-13T18:49:40.738Z,3.35
2018-06-13T18:52:09.359Z,3.45
2018-06-13T18:54:37.724Z,3.50
2018-06-13T18:57:06.602Z,3.83
2018-06-13T18:59:35.015Z,3.75
2018-06-13T19:02:03.566Z,3.30
2018-06-13T19:04:31.804Z,3.25
2018-06-13T19:07:00.338Z,3.75
2018-06-13T19:09:29.819Z,3.80
2018-06-13T19:11:58.412Z,3.90
2018-06-13T19:14:26.674Z,3.35
2018-06-13T19:16:55.127Z,3.72
2018-06-13T19:19:24.029Z,3.40
2018-06-13T19:21:52.585Z,4.03
2018-06-13T19:24:20.912Z,3.35
2018-06-13T19:26:49.265Z,3.33
2018-06-13T19:29:17.539Z,3.52
2018-06-13T19:31:45.901Z,3.25
2018-06-13T19:34:14.403Z,3.67
2018-06-13T19:36:42.962Z,3.72
2018-06-13T19:39:11.447Z,4.12
2018-06-13T19:41:39.832Z,3.67
2018-06-13T19:44:08.217Z,3.65
2018-06-13T19:46:36.593Z,2.85
2018-06-13T19:49:04.885Z,3.62
2018-06-13T19:51:33.123Z,3.58
2018-06-13T19:54:06.956Z,3.25
2018-06-13T19:56:35.171Z,3.90
2018-06-13T19:59:03.676Z,3.37
2018-06-13T20:01:32.006Z,3.47
2018-06-13T20:04:05.856Z,3.70
2018-06-13T20:06:36.809Z,4.17
2018-06-13T20:09:08.911Z,3.65
2018-06-13T20:11:37.094Z,3.85
2018-06-13T20:14:11.042Z,3.60
2018-06-13T20:16:53.002Z,3.80
2018-06-13T20:19:26.695Z,3.75
2018-06-13T20:21:56.057Z,4.00
2018-06-13T20:24:24.487Z,4.20
2018-06-13T20:26:58.244Z,4.03
2018-06-13T20:29:31.972Z,4.08
2018-06-13T20:32:00.086Z,4.10
2018-06-13T20:34:28.241Z,4.35
2018-06-13T20:36:56.449Z,5.00
2018-06-13T20:39:24.559Z,3.83
2018-06-13T20:41:52.739Z,4.72
2018-06-13T20:44:20.950Z,3.50
2018-06-13T20:46:49.131Z,4.20
2018-06-13T20:49:17.332Z,4.10
2018-06-13T20:51:45.942Z,4.37
2018-06-13T20:54:14.082Z,4.55
2018-06-13T20:56:42.191Z,5.20
2018-06-13T20:59:10.250Z,4.42
2018-06-13T21:01:38.426Z,4.95
2018-06-13T21:04:06.602Z,5.12
2018-06-13T21:06:34.741Z,4.20
2018-06-13T21:09:03.283Z,4.25
2018-06-13T21:11:31.431Z,4.15
2018-06-13T21:13:59.622Z,4.92
2018-06-13T21:16:27.903Z,4.28
2018-06-13T21:18:56.112Z,5.20
2018-06-13T21:21:24.383Z,4.33
2018-06-13T21:23:52.601Z,4.28
2018-06-13T21:26:20.763Z,4.50
2018-06-13T21:28:53.287Z,4.55
2018-06-13T21:31:21.578Z,4.25
2018-06-13T21:33:50.093Z,4.60
2018-06-13T21:36:18.273Z,5.05
2018-06-13T21:38:46.396Z,4.22
2018-06-13T21:41:14.527Z,4.47
2018-06-13T21:43:42.659Z,4.58
2018-06-13T21:46:10.799Z,5.30
2018-06-13T21:48:39.084Z,5.35
2018-06-13T21:51:07.299Z,4.97
2018-06-13T21:53:35.446Z,5.30
2018-06-13T21:56:03.535Z,5.20
2018-06-13T21:58:31.698Z,6.62
2018-06-13T22:01:00.013Z,5.15
2018-06-13T22:03:28.106Z,4.47
2018-06-13T22:05:56.242Z,4.60
2018-06-13T22:08:24.366Z,4.85
2018-06-13T22:10:53.159Z,4.90
2018-06-13T22:13:21.272Z,5.45
2018-06-13T22:15:49.500Z,6.10
2018-06-13T22:18:18.092Z,5.30
2018-06-13T22:20:46.158Z,6.60
2018-06-13T22:23:14.408Z,6.05
2018-06-13T22:25:42.913Z,6.25
2018-06-13T22:28:11.190Z,7.25
2018-06-13T22:30:39.447Z,6.90
2018-06-13T22:33:07.672Z,8.28
2018-06-13T22:35:35.825Z,7.47
2018-06-13T22:38:04.266Z,8.10
2018-06-13T22:40:32.375Z,7.67
2018-06-13T22:43:00.542Z,7.70
2018-06-13T22:45:28.945Z,7.78
2018-06-13T22:47:57.433Z,7.10
2018-06-13T22:50:25.509Z,7.47
2018-06-13T22:52:53.616Z,8.28
2018-06-13T22:55:21.853Z,7.95
2018-06-13T22:57:49.944Z,8.23
2018-06-13T23:01:06.381Z,8.03
2018-06-13T23:03:34.513Z,7.22
2018-06-13T23:06:03.965Z,7.20
2018-06-13T23:08:33.196Z,8.13
2018-06-13T23:11:01.330Z,7.72
2018-06-13T23:13:29.490Z,7.42
2018-06-13T23:15:58.090Z,8.40
2018-06-13T23:18:27.142Z,8.00
2018-06-13T23:20:55.590Z,7.95
2018-06-13T23:23:23.774Z,8.25
2018-06-13T23:26:10.772Z,6.90
2018-06-13T23:28:38.904Z,8.40
2018-06-13T23:31:07.118Z,7.50
2018-06-13T23:33:35.333Z,8.05
2018-06-13T23:36:13.001Z,7.85
2018-06-13T23:38:46.022Z,8.05
2018-06-13T23:41:15.312Z,9.00
2018-06-13T23:43:44.235Z,8.35
2018-06-13T23:46:13.885Z,8.23
2018-06-13T23:48:46.334Z,7.40
2018-06-13T23:51:15.495Z,8.38
2018-06-13T23:53:44.023Z,7.47
2018-06-13T23:56:13.273Z,7.42
2018-06-13T23:58:41.418Z,7.90
